sensor_id;sensor_type;location;lat;lon;timestamp;P1;durP1;ratioP1;P2;durP2;ratioP2
59418;SDS011;45224;50.904;6.038;2022-09-24T00:01:12;29.10;;;14.17;;
59418;SDS011;45224;50.904;6.038;2022-09-24T00:02:45;26.20;;;14.07;;
59418;SDS011;45224;50.904;6.038;2022-09-24T00:04:16;31.67;;;14.33;;
59418;SDS011;45224;50.904;6.038;2022-09-24T00:05:48;28.70;;;14.93;;
59418;SDS011;45224;50.904;6.038;2022-09-24T00:07:18;29.60;;;15.30;;
59418;SDS011;45224;50.904;6.038;2022-09-24T00:10:23;27.17;;;12.82;;
59418;SDS011;45224;50.904;6.038;2022-09-24T00:11:53;28.37;;;13.47;;
59418;SDS011;45224;50.904;6.038;2022-09-24T00:13:24;27.53;;;14.20;;
59418;SDS011;45224;50.904;6.038;2022-09-24T00:14:54;25.20;;;12.90;;
59418;SDS011;45224;50.904;6.038;2022-09-24T00:16:26;33.77;;;15.20;;
59418;SDS011;45224;50.904;6.038;2022-09-24T00:18:00;27.95;;;14.60;;
59418;SDS011;45224;50.904;6.038;2022-09-24T00:19:31;30.38;;;14.27;;
59418;SDS011;45224;50.904;6.038;2022-09-24T00:21:11;26.57;;;14.30;;
59418;SDS011;45224;50.904;6.038;2022-09-24T00:22:42;30.63;;;14.85;;
59418;SDS011;45224;50.904;6.038;2022-09-24T00:24:13;28.37;;;14.10;;
59418;SDS011;45224;50.904;6.038;2022-09-24T00:26:05;36.78;;;15.52;;
59418;SDS011;45224;50.904;6.038;2022-09-24T00:27:54;28.88;;;14.35;;
59418;SDS011;45224;50.904;6.038;2022-09-24T00:29:24;30.03;;;15.03;;
59418;SDS011;45224;50.904;6.038;2022-09-24T00:30:55;29.92;;;14.48;;
59418;SDS011;45224;50.904;6.038;2022-09-24T00:32:29;30.02;;;15.50;;
59418;SDS011;45224;50.904;6.038;2022-09-24T00:33:59;29.73;;;15.83;;
59418;SDS011;45224;50.904;6.038;2022-09-24T00:35:34;32.03;;;15.77;;
59418;SDS011;45224;50.904;6.038;2022-09-24T00:37:05;28.40;;;15.63;;
59418;SDS011;45224;50.904;6.038;2022-09-24T00:38:35;31.43;;;15.23;;
59418;SDS011;45224;50.904;6.038;2022-09-24T00:40:06;32.07;;;15.80;;
59418;SDS011;45224;50.904;6.038;2022-09-24T00:41:37;32.05;;;15.95;;
59418;SDS011;45224;50.904;6.038;2022-09-24T00:43:47;32.30;;;15.40;;
59418;SDS011;45224;50.904;6.038;2022-09-24T00:45:10;35.97;;;15.30;;
59418;SDS011;45224;50.904;6.038;2022-09-24T00:46:41;36.03;;;16.67;;
59418;SDS011;45224;50.904;6.038;2022-09-24T00:48:13;35.50;;;16.00;;
59418;SDS011;45224;50.904;6.038;2022-09-24T00:49:43;29.50;;;15.50;;
59418;SDS011;45224;50.904;6.038;2022-09-24T00:51:18;32.55;;;16.23;;
59418;SDS011;45224;50.904;6.038;2022-09-24T00:52:53;31.10;;;15.48;;
59418;SDS011;45224;50.904;6.038;2022-09-24T00:54:28;31.92;;;15.63;;
59418;SDS011;45224;50.904;6.038;2022-09-24T00:55:58;38.20;;;16.20;;
59418;SDS011;45224;50.904;6.038;2022-09-24T00:57:30;33.28;;;15.68;;
59418;SDS011;45224;50.904;6.038;2022-09-24T00:59:01;33.40;;;16.38;;
59418;SDS011;45224;50.904;6.038;2022-09-24T01:00:35;34.13;;;16.55;;
59418;SDS011;45224;50.904;6.038;2022-09-24T01:02:08;33.42;;;15.77;;
59418;SDS011;45224;50.904;6.038;2022-09-24T01:03:39;38.80;;;18.60;;
59418;SDS011;45224;50.904;6.038;2022-09-24T01:05:11;34.22;;;17.38;;
59418;SDS011;45224;50.904;6.038;2022-09-24T01:06:42;42.03;;;17.88;;
59418;SDS011;45224;50.904;6.038;2022-09-24T01:08:13;38.72;;;16.70;;
59418;SDS011;45224;50.904;6.038;2022-09-24T01:09:45;40.42;;;17.73;;
59418;SDS011;45224;50.904;6.038;2022-09-24T01:11:18;33.37;;;16.33;;
59418;SDS011;45224;50.904;6.038;2022-09-24T01:12:51;34.25;;;16.80;;
59418;SDS011;45224;50.904;6.038;2022-09-24T01:14:35;36.80;;;17.65;;
59418;SDS011;45224;50.904;6.038;2022-09-24T01:18:04;42.60;;;18.95;;
59418;SDS011;45224;50.904;6.038;2022-09-24T01:21:53;40.33;;;17.80;;
59418;SDS011;45224;50.904;6.038;2022-09-24T01:23:35;41.50;;;18.42;;
59418;SDS011;45224;50.904;6.038;2022-09-24T01:27:19;35.90;;;17.27;;
59418;SDS011;45224;50.904;6.038;2022-09-24T01:30:53;35.33;;;16.88;;
59418;SDS011;45224;50.904;6.038;2022-09-24T01:32:34;47.40;;;19.42;;
59418;SDS011;45224;50.904;6.038;2022-09-24T01:34:08;43.22;;;21.20;;
59418;SDS011;45224;50.904;6.038;2022-09-24T01:35:48;45.97;;;21.10;;
59418;SDS011;45224;50.904;6.038;2022-09-24T01:37:22;45.65;;;22.02;;
59418;SDS011;45224;50.904;6.038;2022-09-24T01:38:56;49.88;;;20.50;;
59418;SDS011;45224;50.904;6.038;2022-09-24T01:41:59;48.53;;;20.20;;
59418;SDS011;45224;50.904;6.038;2022-09-24T01:43:30;44.72;;;20.83;;
59418;SDS011;45224;50.904;6.038;2022-09-24T01:46:33;42.47;;;19.17;;
59418;SDS011;45224;50.904;6.038;2022-09-24T01:48:07;43.15;;;19.67;;
59418;SDS011;45224;50.904;6.038;2022-09-24T01:49:38;44.83;;;20.38;;
59418;SDS011;45224;50.904;6.038;2022-09-24T01:51:10;49.53;;;22.13;;
59418;SDS011;45224;50.904;6.038;2022-09-24T01:52:48;46.70;;;21.23;;
59418;SDS011;45224;50.904;6.038;2022-09-24T01:54:26;55.72;;;26.58;;
59418;SDS011;45224;50.904;6.038;2022-09-24T01:56:01;53.10;;;24.83;;
59418;SDS011;45224;50.904;6.038;2022-09-24T01:57:42;52.15;;;24.08;;
59418;SDS011;45224;50.904;6.038;2022-09-24T02:01:10;52.58;;;21.80;;
59418;SDS011;45224;50.904;6.038;2022-09-24T02:04:35;49.15;;;25.15;;
59418;SDS011;45224;50.904;6.038;2022-09-24T02:07:44;57.57;;;28.03;;
59418;SDS011;45224;50.904;6.038;2022-09-24T02:09:36;50.00;;;23.02;;
59418;SDS011;45224;50.904;6.038;2022-09-24T02:11:16;60.10;;;28.85;;
59418;SDS011;45224;50.904;6.038;2022-09-24T02:12:57;64.93;;;27.80;;
59418;SDS011;45224;50.904;6.038;2022-09-24T02:14:35;69.85;;;33.45;;
59418;SDS011;45224;50.904;6.038;2022-09-24T02:16:09;71.97;;;33.25;;
59418;SDS011;45224;50.904;6.038;2022-09-24T02:17:45;65.82;;;32.90;;
59418;SDS011;45224;50.904;6.038;2022-09-24T02:19:22;77.22;;;35.75;;
59418;SDS011;45224;50.904;6.038;2022-09-24T02:20:56;69.70;;;34.65;;
59418;SDS011;45224;50.904;6.038;2022-09-24T02:22:32;66.60;;;34.85;;
59418;SDS011;45224;50.904;6.038;2022-09-24T02:24:04;71.27;;;34.13;;
59418;SDS011;45224;50.904;6.038;2022-09-24T02:25:44;73.50;;;35.20;;
59418;SDS011;45224;50.904;6.038;2022-09-24T02:27:20;71.93;;;35.20;;
59418;SDS011;45224;50.904;6.038;2022-09-24T02:28:51;69.40;;;33.47;;
59418;SDS011;45224;50.904;6.038;2022-09-24T02:30:22;61.28;;;31.80;;
59418;SDS011;45224;50.904;6.038;2022-09-24T02:31:53;65.27;;;30.47;;
59418;SDS011;45224;50.904;6.038;2022-09-24T02:33:26;61.35;;;29.60;;
59418;SDS011;45224;50.904;6.038;2022-09-24T02:35:19;67.70;;;30.77;;
59418;SDS011;45224;50.904;6.038;2022-09-24T02:37:02;65.05;;;29.77;;
59418;SDS011;45224;50.904;6.038;2022-09-24T02:38:35;58.15;;;26.65;;
59418;SDS011;45224;50.904;6.038;2022-09-24T02:40:07;58.22;;;27.30;;
59418;SDS011;45224;50.904;6.038;2022-09-24T02:41:39;67.53;;;27.67;;
59418;SDS011;45224;50.904;6.038;2022-09-24T02:43:11;55.58;;;25.60;;
59418;SDS011;45224;50.904;6.038;2022-09-24T02:44:42;57.80;;;25.43;;
59418;SDS011;45224;50.904;6.038;2022-09-24T02:46:12;53.20;;;25.35;;
59418;SDS011;45224;50.904;6.038;2022-09-24T02:47:43;52.53;;;25.63;;
59418;SDS011;45224;50.904;6.038;2022-09-24T02:49:13;67.80;;;25.90;;
59418;SDS011;45224;50.904;6.038;2022-09-24T02:50:44;46.88;;;22.25;;
59418;SDS011;45224;50.904;6.038;2022-09-24T02:52:15;48.35;;;24.40;;
59418;SDS011;45224;50.904;6.038;2022-09-24T02:53:45;48.47;;;22.43;;
59418;SDS011;45224;50.904;6.038;2022-09-24T02:55:15;54.43;;;24.97;;
59418;SDS011;45224;50.904;6.038;2022-09-24T02:56:46;52.70;;;24.30;;
59418;SDS011;45224;50.904;6.038;2022-09-24T02:58:17;54.45;;;25.80;;
59418;SDS011;45224;50.904;6.038;2022-09-24T02:59:47;51.20;;;24.00;;
59418;SDS011;45224;50.904;6.038;2022-09-24T03:01:18;55.73;;;26.50;;
59418;SDS011;45224;50.904;6.038;2022-09-24T03:02:48;54.42;;;27.88;;
59418;SDS011;45224;50.904;6.038;2022-09-24T03:04:19;67.90;;;30.43;;
59418;SDS011;45224;50.904;6.038;2022-09-24T03:05:49;63.23;;;27.03;;
59418;SDS011;45224;50.904;6.038;2022-09-24T03:07:22;55.47;;;27.67;;
59418;SDS011;45224;50.904;6.038;2022-09-24T03:08:52;50.77;;;24.20;;
59418;SDS011;45224;50.904;6.038;2022-09-24T03:10:23;54.83;;;25.00;;
59418;SDS011;45224;50.904;6.038;2022-09-24T03:11:53;52.57;;;25.27;;
59418;SDS011;45224;50.904;6.038;2022-09-24T03:13:24;50.88;;;24.52;;
59418;SDS011;45224;50.904;6.038;2022-09-24T03:14:55;55.20;;;24.83;;
59418;SDS011;45224;50.904;6.038;2022-09-24T03:16:25;49.63;;;23.67;;
59418;SDS011;45224;50.904;6.038;2022-09-24T03:17:56;51.67;;;23.58;;
59418;SDS011;45224;50.904;6.038;2022-09-24T03:19:26;47.20;;;22.93;;
59418;SDS011;45224;50.904;6.038;2022-09-24T03:20:57;43.67;;;21.97;;
59418;SDS011;45224;50.904;6.038;2022-09-24T03:22:29;43.50;;;21.75;;
59418;SDS011;45224;50.904;6.038;2022-09-24T03:24:00;51.97;;;22.17;;
59418;SDS011;45224;50.904;6.038;2022-09-24T03:25:30;40.90;;;21.13;;
59418;SDS011;45224;50.904;6.038;2022-09-24T03:27:01;43.67;;;21.30;;
59418;SDS011;45224;50.904;6.038;2022-09-24T03:28:31;47.83;;;24.07;;
59418;SDS011;45224;50.904;6.038;2022-09-24T03:30:02;40.47;;;20.27;;
59418;SDS011;45224;50.904;6.038;2022-09-24T03:31:51;44.72;;;21.17;;
59418;SDS011;45224;50.904;6.038;2022-09-24T03:33:21;45.23;;;22.17;;
59418;SDS011;45224;50.904;6.038;2022-09-24T03:34:52;45.77;;;21.33;;
59418;SDS011;45224;50.904;6.038;2022-09-24T03:36:23;45.75;;;22.42;;
59418;SDS011;45224;50.904;6.038;2022-09-24T03:37:57;49.22;;;22.42;;
59418;SDS011;45224;50.904;6.038;2022-09-24T03:39:28;42.97;;;20.27;;
59418;SDS011;45224;50.904;6.038;2022-09-24T03:40:58;41.57;;;21.33;;
59418;SDS011;45224;50.904;6.038;2022-09-24T03:42:29;45.22;;;20.92;;
59418;SDS011;45224;50.904;6.038;2022-09-24T03:44:00;42.00;;;21.77;;
59418;SDS011;45224;50.904;6.038;2022-09-24T03:45:30;51.40;;;23.43;;
59418;SDS011;45224;50.904;6.038;2022-09-24T03:47:01;49.47;;;20.43;;
59418;SDS011;45224;50.904;6.038;2022-09-24T03:48:32;42.77;;;20.20;;
59418;SDS011;45224;50.904;6.038;2022-09-24T03:50:04;41.47;;;19.85;;
59418;SDS011;45224;50.904;6.038;2022-09-24T03:51:35;36.97;;;18.58;;
59418;SDS011;45224;50.904;6.038;2022-09-24T03:53:05;47.20;;;19.43;;
59418;SDS011;45224;50.904;6.038;2022-09-24T03:54:36;40.90;;;19.47;;
59418;SDS011;45224;50.904;6.038;2022-09-24T03:56:07;41.53;;;19.07;;
59418;SDS011;45224;50.904;6.038;2022-09-24T03:57:38;38.90;;;18.25;;
59418;SDS011;45224;50.904;6.038;2022-09-24T03:59:09;41.30;;;18.07;;
59418;SDS011;45224;50.904;6.038;2022-09-24T04:00:40;36.88;;;18.00;;
59418;SDS011;45224;50.904;6.038;2022-09-24T04:02:11;40.42;;;18.70;;
59418;SDS011;45224;50.904;6.038;2022-09-24T04:03:42;38.35;;;19.23;;
59418;SDS011;45224;50.904;6.038;2022-09-24T04:05:12;45.13;;;19.97;;
59418;SDS011;45224;50.904;6.038;2022-09-24T04:06:43;40.33;;;18.83;;
59418;SDS011;45224;50.904;6.038;2022-09-24T04:08:14;40.80;;;19.45;;
59418;SDS011;45224;50.904;6.038;2022-09-24T04:09:44;47.17;;;19.43;;
59418;SDS011;45224;50.904;6.038;2022-09-24T04:11:15;34.90;;;18.50;;
59418;SDS011;45224;50.904;6.038;2022-09-24T04:12:45;36.17;;;17.67;;
59418;SDS011;45224;50.904;6.038;2022-09-24T04:14:15;40.20;;;18.53;;
59418;SDS011;45224;50.904;6.038;2022-09-24T04:15:46;38.87;;;18.90;;
59418;SDS011;45224;50.904;6.038;2022-09-24T04:17:17;38.00;;;17.88;;
59418;SDS011;45224;50.904;6.038;2022-09-24T04:18:48;38.10;;;18.33;;
59418;SDS011;45224;50.904;6.038;2022-09-24T04:20:20;39.53;;;18.52;;
59418;SDS011;45224;50.904;6.038;2022-09-24T04:21:52;39.20;;;18.52;;
59418;SDS011;45224;50.904;6.038;2022-09-24T04:23:23;40.63;;;18.53;;
59418;SDS011;45224;50.904;6.038;2022-09-24T04:24:55;44.10;;;19.58;;
59418;SDS011;45224;50.904;6.038;2022-09-24T04:26:26;46.33;;;19.60;;
59418;SDS011;45224;50.904;6.038;2022-09-24T04:27:57;46.93;;;19.20;;
59418;SDS011;45224;50.904;6.038;2022-09-24T04:29:30;44.20;;;20.60;;
59418;SDS011;45224;50.904;6.038;2022-09-24T04:31:00;45.77;;;20.63;;
59418;SDS011;45224;50.904;6.038;2022-09-24T04:32:31;42.27;;;19.93;;
59418;SDS011;45224;50.904;6.038;2022-09-24T04:34:01;49.13;;;21.63;;
59418;SDS011;45224;50.904;6.038;2022-09-24T04:35:32;41.50;;;18.77;;
59418;SDS011;45224;50.904;6.038;2022-09-24T04:37:05;43.45;;;20.88;;
59418;SDS011;45224;50.904;6.038;2022-09-24T04:38:35;48.80;;;20.57;;
59418;SDS011;45224;50.904;6.038;2022-09-24T04:40:06;45.93;;;18.30;;
59418;SDS011;45224;50.904;6.038;2022-09-24T04:41:41;42.70;;;19.85;;
59418;SDS011;45224;50.904;6.038;2022-09-24T04:43:11;44.53;;;19.53;;
59418;SDS011;45224;50.904;6.038;2022-09-24T04:44:42;46.40;;;19.83;;
59418;SDS011;45224;50.904;6.038;2022-09-24T04:46:16;48.53;;;19.52;;
59418;SDS011;45224;50.904;6.038;2022-09-24T04:49:25;42.72;;;19.23;;
59418;SDS011;45224;50.904;6.038;2022-09-24T04:50:56;48.90;;;20.50;;
59418;SDS011;45224;50.904;6.038;2022-09-24T04:52:28;46.72;;;19.73;;
59418;SDS011;45224;50.904;6.038;2022-09-24T04:54:01;45.45;;;20.17;;
59418;SDS011;45224;50.904;6.038;2022-09-24T04:55:32;48.15;;;19.98;;
59418;SDS011;45224;50.904;6.038;2022-09-24T04:57:03;45.17;;;19.30;;
59418;SDS011;45224;50.904;6.038;2022-09-24T04:58:33;41.33;;;19.37;;
59418;SDS011;45224;50.904;6.038;2022-09-24T05:00:05;47.27;;;22.03;;
59418;SDS011;45224;50.904;6.038;2022-09-24T05:01:38;56.20;;;22.48;;
59418;SDS011;45224;50.904;6.038;2022-09-24T05:04:39;54.20;;;18.73;;
59418;SDS011;45224;50.904;6.038;2022-09-24T05:06:10;42.97;;;19.20;;
59418;SDS011;45224;50.904;6.038;2022-09-24T05:07:41;47.22;;;20.50;;
59418;SDS011;45224;50.904;6.038;2022-09-24T05:09:13;45.90;;;20.33;;
59418;SDS011;45224;50.904;6.038;2022-09-24T05:10:43;44.60;;;18.03;;
59418;SDS011;45224;50.904;6.038;2022-09-24T05:12:14;40.30;;;18.27;;
59418;SDS011;45224;50.904;6.038;2022-09-24T05:13:44;44.50;;;18.63;;
59418;SDS011;45224;50.904;6.038;2022-09-24T05:15:15;40.20;;;18.07;;
59418;SDS011;45224;50.904;6.038;2022-09-24T05:16:48;44.10;;;18.95;;
59418;SDS011;45224;50.904;6.038;2022-09-24T05:18:18;46.50;;;18.83;;
59418;SDS011;45224;50.904;6.038;2022-09-24T05:19:48;41.73;;;18.17;;
59418;SDS011;45224;50.904;6.038;2022-09-24T05:21:19;44.73;;;18.63;;
59418;SDS011;45224;50.904;6.038;2022-09-24T05:22:50;39.60;;;17.48;;
59418;SDS011;45224;50.904;6.038;2022-09-24T05:24:20;39.20;;;18.23;;
59418;SDS011;45224;50.904;6.038;2022-09-24T05:25:51;44.33;;;19.63;;
59418;SDS011;45224;50.904;6.038;2022-09-24T05:27:58;45.80;;;19.25;;
59418;SDS011;45224;50.904;6.038;2022-09-24T05:29:28;47.30;;;18.08;;
59418;SDS011;45224;50.904;6.038;2022-09-24T05:30:59;41.30;;;17.60;;
59418;SDS011;45224;50.904;6.038;2022-09-24T05:32:30;45.78;;;18.58;;
59418;SDS011;45224;50.904;6.038;2022-09-24T05:34:05;40.83;;;18.02;;
59418;SDS011;45224;50.904;6.038;2022-09-24T05:35:36;50.07;;;20.03;;
59418;SDS011;45224;50.904;6.038;2022-09-24T05:37:06;37.97;;;17.97;;
59418;SDS011;45224;50.904;6.038;2022-09-24T05:38:39;43.63;;;18.27;;
59418;SDS011;45224;50.904;6.038;2022-09-24T05:40:09;42.70;;;18.43;;
59418;SDS011;45224;50.904;6.038;2022-09-24T05:41:58;41.53;;;19.73;;
59418;SDS011;45224;50.904;6.038;2022-09-24T05:43:29;43.57;;;19.43;;
59418;SDS011;45224;50.904;6.038;2022-09-24T05:45:00;48.72;;;19.40;;
59418;SDS011;45224;50.904;6.038;2022-09-24T05:46:31;43.90;;;20.13;;
59418;SDS011;45224;50.904;6.038;2022-09-24T05:48:02;47.42;;;19.73;;
59418;SDS011;45224;50.904;6.038;2022-09-24T05:49:33;48.58;;;20.30;;
59418;SDS011;45224;50.904;6.038;2022-09-24T05:51:04;42.38;;;18.77;;
59418;SDS011;45224;50.904;6.038;2022-09-24T05:52:34;46.80;;;20.40;;
59418;SDS011;45224;50.904;6.038;2022-09-24T05:54:05;50.30;;;20.93;;
59418;SDS011;45224;50.904;6.038;2022-09-24T05:55:35;50.58;;;20.95;;
59418;SDS011;45224;50.904;6.038;2022-09-24T05:57:06;55.30;;;20.80;;
59418;SDS011;45224;50.904;6.038;2022-09-24T05:58:36;43.60;;;20.20;;
59418;SDS011;45224;50.904;6.038;2022-09-24T06:00:07;44.33;;;19.90;;
59418;SDS011;45224;50.904;6.038;2022-09-24T06:01:44;47.53;;;20.60;;
59418;SDS011;45224;50.904;6.038;2022-09-24T06:03:15;45.10;;;21.20;;
59418;SDS011;45224;50.904;6.038;2022-09-24T06:04:46;49.15;;;20.08;;
59418;SDS011;45224;50.904;6.038;2022-09-24T06:06:17;47.80;;;20.87;;
59418;SDS011;45224;50.904;6.038;2022-09-24T06:07:47;52.83;;;20.47;;
59418;SDS011;45224;50.904;6.038;2022-09-24T06:09:18;44.67;;;20.30;;
59418;SDS011;45224;50.904;6.038;2022-09-24T06:10:48;43.67;;;19.90;;
59418;SDS011;45224;50.904;6.038;2022-09-24T06:12:19;46.47;;;19.83;;
59418;SDS011;45224;50.904;6.038;2022-09-24T06:13:51;48.92;;;19.75;;
59418;SDS011;45224;50.904;6.038;2022-09-24T06:15:21;48.57;;;20.53;;
59418;SDS011;45224;50.904;6.038;2022-09-24T06:16:52;46.55;;;20.02;;
59418;SDS011;45224;50.904;6.038;2022-09-24T06:18:22;47.47;;;20.53;;
59418;SDS011;45224;50.904;6.038;2022-09-24T06:19:53;48.85;;;20.35;;
59418;SDS011;45224;50.904;6.038;2022-09-24T06:21:24;51.90;;;20.85;;
59418;SDS011;45224;50.904;6.038;2022-09-24T06:22:55;47.20;;;20.23;;
59418;SDS011;45224;50.904;6.038;2022-09-24T06:24:26;49.83;;;21.23;;
59418;SDS011;45224;50.904;6.038;2022-09-24T06:25:57;46.67;;;20.30;;
59418;SDS011;45224;50.904;6.038;2022-09-24T06:27:27;42.30;;;19.48;;
59418;SDS011;45224;50.904;6.038;2022-09-24T06:28:58;47.13;;;20.63;;
59418;SDS011;45224;50.904;6.038;2022-09-24T06:32:02;55.70;;;21.10;;
59418;SDS011;45224;50.904;6.038;2022-09-24T06:33:33;57.22;;;21.25;;
59418;SDS011;45224;50.904;6.038;2022-09-24T06:35:04;49.85;;;21.77;;
59418;SDS011;45224;50.904;6.038;2022-09-24T06:36:35;50.90;;;22.13;;
59418;SDS011;45224;50.904;6.038;2022-09-24T06:38:07;57.87;;;22.00;;
59418;SDS011;45224;50.904;6.038;2022-09-24T06:39:40;47.50;;;21.63;;
59418;SDS011;45224;50.904;6.038;2022-09-24T06:41:10;51.43;;;22.73;;
59418;SDS011;45224;50.904;6.038;2022-09-24T06:42:41;59.23;;;22.00;;
59418;SDS011;45224;50.904;6.038;2022-09-24T06:44:11;48.65;;;20.88;;
59418;SDS011;45224;50.904;6.038;2022-09-24T06:45:42;51.83;;;21.50;;
59418;SDS011;45224;50.904;6.038;2022-09-24T06:47:13;56.78;;;23.92;;
59418;SDS011;45224;50.904;6.038;2022-09-24T06:48:43;60.00;;;23.40;;
59418;SDS011;45224;50.904;6.038;2022-09-24T06:50:13;56.43;;;23.10;;
59418;SDS011;45224;50.904;6.038;2022-09-24T06:51:44;62.40;;;23.53;;
59418;SDS011;45224;50.904;6.038;2022-09-24T06:53:15;54.63;;;22.20;;
59418;SDS011;45224;50.904;6.038;2022-09-24T06:54:45;53.30;;;22.33;;
59418;SDS011;45224;50.904;6.038;2022-09-24T06:56:16;59.80;;;23.77;;
59418;SDS011;45224;50.904;6.038;2022-09-24T06:57:46;55.37;;;23.70;;
59418;SDS011;45224;50.904;6.038;2022-09-24T06:59:17;57.17;;;23.10;;
59418;SDS011;45224;50.904;6.038;2022-09-24T07:02:22;54.40;;;22.83;;
59418;SDS011;45224;50.904;6.038;2022-09-24T07:03:52;50.10;;;21.30;;
59418;SDS011;45224;50.904;6.038;2022-09-24T07:05:23;54.80;;;21.57;;
59418;SDS011;45224;50.904;6.038;2022-09-24T07:06:53;53.07;;;22.90;;
59418;SDS011;45224;50.904;6.038;2022-09-24T07:08:42;54.20;;;23.80;;
59418;SDS011;45224;50.904;6.038;2022-09-24T07:10:13;59.00;;;23.20;;
59418;SDS011;45224;50.904;6.038;2022-09-24T07:11:44;55.60;;;22.65;;
59418;SDS011;45224;50.904;6.038;2022-09-24T07:13:15;58.25;;;21.33;;
59418;SDS011;45224;50.904;6.038;2022-09-24T07:14:46;61.95;;;22.38;;
59418;SDS011;45224;50.904;6.038;2022-09-24T07:16:16;59.17;;;23.48;;
59418;SDS011;45224;50.904;6.038;2022-09-24T07:17:47;54.97;;;22.53;;
59418;SDS011;45224;50.904;6.038;2022-09-24T07:19:17;58.03;;;22.90;;
59418;SDS011;45224;50.904;6.038;2022-09-24T07:20:54;50.80;;;22.33;;
59418;SDS011;45224;50.904;6.038;2022-09-24T07:22:25;57.13;;;22.42;;
59418;SDS011;45224;50.904;6.038;2022-09-24T07:23:56;59.03;;;23.07;;
59418;SDS011;45224;50.904;6.038;2022-09-24T07:25:26;55.03;;;21.90;;
59418;SDS011;45224;50.904;6.038;2022-09-24T07:26:57;55.73;;;23.07;;
59418;SDS011;45224;50.904;6.038;2022-09-24T07:28:27;64.40;;;24.13;;
59418;SDS011;45224;50.904;6.038;2022-09-24T07:29:57;56.70;;;23.73;;
59418;SDS011;45224;50.904;6.038;2022-09-24T07:31:28;59.77;;;25.47;;
59418;SDS011;45224;50.904;6.038;2022-09-24T07:32:59;60.85;;;24.33;;
59418;SDS011;45224;50.904;6.038;2022-09-24T07:34:30;57.13;;;23.20;;
59418;SDS011;45224;50.904;6.038;2022-09-24T07:36:03;60.88;;;23.33;;
59418;SDS011;45224;50.904;6.038;2022-09-24T07:37:36;69.00;;;25.08;;
59418;SDS011;45224;50.904;6.038;2022-09-24T07:39:06;61.40;;;25.10;;
59418;SDS011;45224;50.904;6.038;2022-09-24T07:40:37;64.77;;;24.87;;
59418;SDS011;45224;50.904;6.038;2022-09-24T07:42:07;66.13;;;25.35;;
59418;SDS011;45224;50.904;6.038;2022-09-24T07:43:38;62.70;;;23.80;;
59418;SDS011;45224;50.904;6.038;2022-09-24T07:45:08;55.87;;;25.57;;
59418;SDS011;45224;50.904;6.038;2022-09-24T07:46:39;71.25;;;25.65;;
59418;SDS011;45224;50.904;6.038;2022-09-24T07:48:10;63.63;;;24.50;;
59418;SDS011;45224;50.904;6.038;2022-09-24T07:49:40;57.25;;;25.48;;
59418;SDS011;45224;50.904;6.038;2022-09-24T07:51:11;65.10;;;24.92;;
59418;SDS011;45224;50.904;6.038;2022-09-24T07:52:42;63.87;;;25.07;;
59418;SDS011;45224;50.904;6.038;2022-09-24T07:54:12;60.63;;;24.00;;
59418;SDS011;45224;50.904;6.038;2022-09-24T07:55:43;65.70;;;25.33;;
59418;SDS011;45224;50.904;6.038;2022-09-24T07:58:51;59.53;;;23.23;;
59418;SDS011;45224;50.904;6.038;2022-09-24T08:00:22;57.58;;;25.40;;
59418;SDS011;45224;50.904;6.038;2022-09-24T08:01:54;56.95;;;23.42;;
59418;SDS011;45224;50.904;6.038;2022-09-24T08:03:24;67.93;;;25.53;;
59418;SDS011;45224;50.904;6.038;2022-09-24T08:04:55;67.65;;;26.55;;
59418;SDS011;45224;50.904;6.038;2022-09-24T08:06:25;69.60;;;27.50;;
59418;SDS011;45224;50.904;6.038;2022-09-24T08:07:56;69.35;;;26.88;;
59418;SDS011;45224;50.904;6.038;2022-09-24T08:09:27;56.88;;;23.33;;
59418;SDS011;45224;50.904;6.038;2022-09-24T08:11:01;51.97;;;22.63;;
59418;SDS011;45224;50.904;6.038;2022-09-24T08:12:32;51.92;;;24.00;;
59418;SDS011;45224;50.904;6.038;2022-09-24T08:14:03;60.75;;;25.52;;
59418;SDS011;45224;50.904;6.038;2022-09-24T08:15:34;54.83;;;23.93;;
59418;SDS011;45224;50.904;6.038;2022-09-24T08:17:04;60.20;;;22.70;;
59418;SDS011;45224;50.904;6.038;2022-09-24T08:18:35;73.80;;;29.80;;
59418;SDS011;45224;50.904;6.038;2022-09-24T08:20:05;68.90;;;27.00;;
59418;SDS011;45224;50.904;6.038;2022-09-24T08:21:37;61.20;;;25.27;;
59418;SDS011;45224;50.904;6.038;2022-09-24T08:23:08;65.57;;;27.55;;
59418;SDS011;45224;50.904;6.038;2022-09-24T08:26:11;54.80;;;24.08;;
59418;SDS011;45224;50.904;6.038;2022-09-24T08:27:43;53.97;;;23.30;;
59418;SDS011;45224;50.904;6.038;2022-09-24T08:29:13;54.73;;;24.37;;
59418;SDS011;45224;50.904;6.038;2022-09-24T08:30:44;57.83;;;24.40;;
59418;SDS011;45224;50.904;6.038;2022-09-24T08:32:15;56.15;;;23.52;;
59418;SDS011;45224;50.904;6.038;2022-09-24T08:33:46;54.45;;;23.50;;
59418;SDS011;45224;50.904;6.038;2022-09-24T08:35:19;55.60;;;23.10;;
59418;SDS011;45224;50.904;6.038;2022-09-24T08:36:50;56.97;;;24.77;;
59418;SDS011;45224;50.904;6.038;2022-09-24T08:38:20;51.50;;;22.90;;
59418;SDS011;45224;50.904;6.038;2022-09-24T08:39:51;53.10;;;21.13;;
59418;SDS011;45224;50.904;6.038;2022-09-24T08:42:54;61.00;;;25.37;;
59418;SDS011;45224;50.904;6.038;2022-09-24T08:44:45;54.08;;;21.20;;
59418;SDS011;45224;50.904;6.038;2022-09-24T08:46:47;49.33;;;20.95;;
59418;SDS011;45224;50.904;6.038;2022-09-24T08:48:41;48.60;;;20.27;;
59418;SDS011;45224;50.904;6.038;2022-09-24T08:50:19;50.45;;;21.70;;
59418;SDS011;45224;50.904;6.038;2022-09-24T08:55:34;50.70;;;21.70;;
59418;SDS011;45224;50.904;6.038;2022-09-24T08:57:09;53.40;;;24.00;;
59418;SDS011;45224;50.904;6.038;2022-09-24T08:58:44;57.83;;;23.15;;
59418;SDS011;45224;50.904;6.038;2022-09-24T09:00:16;49.90;;;21.90;;
59418;SDS011;45224;50.904;6.038;2022-09-24T09:05:30;59.55;;;22.55;;
59418;SDS011;45224;50.904;6.038;2022-09-24T09:09:03;61.38;;;24.38;;
59418;SDS011;45224;50.904;6.038;2022-09-24T09:10:40;54.10;;;23.30;;
59418;SDS011;45224;50.904;6.038;2022-09-24T09:12:14;58.75;;;25.13;;
59418;SDS011;45224;50.904;6.038;2022-09-24T09:13:57;54.70;;;24.17;;
59418;SDS011;45224;50.904;6.038;2022-09-24T09:15:34;60.15;;;23.95;;
59418;SDS011;45224;50.904;6.038;2022-09-24T09:19:07;55.58;;;22.60;;
59418;SDS011;45224;50.904;6.038;2022-09-24T09:20:43;53.03;;;22.88;;
59418;SDS011;45224;50.904;6.038;2022-09-24T09:22:16;58.40;;;21.30;;
59418;SDS011;45224;50.904;6.038;2022-09-24T09:23:47;51.10;;;20.02;;
59418;SDS011;45224;50.904;6.038;2022-09-24T09:25:25;50.15;;;21.25;;
59418;SDS011;45224;50.904;6.038;2022-09-24T09:26:59;48.20;;;19.88;;
59418;SDS011;45224;50.904;6.038;2022-09-24T09:28:31;48.53;;;20.63;;
59418;SDS011;45224;50.904;6.038;2022-09-24T09:30:03;52.50;;;23.65;;
59418;SDS011;45224;50.904;6.038;2022-09-24T09:32:12;53.15;;;21.98;;
59418;SDS011;45224;50.904;6.038;2022-09-24T09:35:52;43.45;;;17.75;;
59418;SDS011;45224;50.904;6.038;2022-09-24T09:37:37;46.38;;;18.90;;
59418;SDS011;45224;50.904;6.038;2022-09-24T09:41:19;41.90;;;17.85;;
59418;SDS011;45224;50.904;6.038;2022-09-24T09:43:02;45.40;;;17.20;;
59418;SDS011;45224;50.904;6.038;2022-09-24T09:44:39;44.88;;;18.35;;
59418;SDS011;45224;50.904;6.038;2022-09-24T09:46:13;46.85;;;19.73;;
59418;SDS011;45224;50.904;6.038;2022-09-24T09:47:48;45.00;;;19.73;;